sensor_id;sensor_type;location;lat;lon;timestamp;P1;durP1;ratioP1;P2;durP2;ratioP2
21494;SDS011;10909;53.590;10.054;2022-09-21T00:00:35;4.30;;;2.30;;
21494;SDS011;10909;53.590;10.054;2022-09-21T00:03:01;3.23;;;2.53;;
21494;SDS011;10909;53.590;10.054;2022-09-21T00:05:27;3.27;;;2.07;;
21494;SDS011;10909;53.590;10.054;2022-09-21T00:07:53;3.93;;;2.47;;
21494;SDS011;10909;53.590;10.054;2022-09-21T00:10:19;4.07;;;2.30;;
21494;SDS011;10909;53.590;10.054;2022-09-21T00:12:46;2.97;;;2.10;;
21494;SDS011;10909;53.590;10.054;2022-09-21T00:15:12;3.53;;;2.40;;
21494;SDS011;10909;53.590;10.054;2022-09-21T00:17:41;2.90;;;2.03;;
21494;SDS011;10909;53.590;10.054;2022-09-21T00:20:07;3.57;;;2.00;;
21494;SDS011;10909;53.590;10.054;2022-09-21T00:22:34;3.70;;;2.07;;
21494;SDS011;10909;53.590;10.054;2022-09-21T00:25:00;2.60;;;1.90;;
21494;SDS011;10909;53.590;10.054;2022-09-21T00:27:27;2.13;;;1.63;;
21494;SDS011;10909;53.590;10.054;2022-09-21T00:30:00;3.87;;;2.20;;
21494;SDS011;10909;53.590;10.054;2022-09-21T00:32:28;4.27;;;2.23;;
21494;SDS011;10909;53.590;10.054;2022-09-21T00:34:56;3.17;;;1.80;;
21494;SDS011;10909;53.590;10.054;2022-09-21T00:37:23;5.63;;;1.90;;
21494;SDS011;10909;53.590;10.054;2022-09-21T00:39:49;3.10;;;2.07;;
21494;SDS011;10909;53.590;10.054;2022-09-21T00:42:21;3.70;;;2.00;;
21494;SDS011;10909;53.590;10.054;2022-09-21T00:44:48;2.63;;;1.80;;
21494;SDS011;10909;53.590;10.054;2022-09-21T00:47:15;5.00;;;1.80;;
21494;SDS011;10909;53.590;10.054;2022-09-21T00:49:48;2.70;;;1.90;;
21494;SDS011;10909;53.590;10.054;2022-09-21T00:52:18;3.03;;;1.70;;
21494;SDS011;10909;53.590;10.054;2022-09-21T00:54:46;2.97;;;1.70;;
21494;SDS011;10909;53.590;10.054;2022-09-21T00:57:14;3.57;;;1.97;;
21494;SDS011;10909;53.590;10.054;2022-09-21T00:59:41;4.30;;;2.00;;
21494;SDS011;10909;53.590;10.054;2022-09-21T01:02:09;2.30;;;1.87;;
21494;SDS011;10909;53.590;10.054;2022-09-21T01:04:36;2.77;;;1.70;;
21494;SDS011;10909;53.590;10.054;2022-09-21T01:07:03;3.43;;;1.80;;
21494;SDS011;10909;53.590;10.054;2022-09-21T01:09:31;3.07;;;1.70;;
21494;SDS011;10909;53.590;10.054;2022-09-21T01:24:01;5.57;;;1.80;;
21494;SDS011;10909;53.590;10.054;2022-09-21T01:26:55;4.90;;;1.80;;
21494;SDS011;10909;53.590;10.054;2022-09-21T01:29:49;3.47;;;1.67;;
21494;SDS011;10909;53.590;10.054;2022-09-21T01:32:30;3.47;;;2.03;;
21494;SDS011;10909;53.590;10.054;2022-09-21T01:35:20;3.13;;;1.80;;
21494;SDS011;10909;53.590;10.054;2022-09-21T01:37:57;3.80;;;1.80;;
21494;SDS011;10909;53.590;10.054;2022-09-21T01:40:35;3.97;;;2.00;;
21494;SDS011;10909;53.590;10.054;2022-09-21T01:43:05;2.70;;;1.67;;
21494;SDS011;10909;53.590;10.054;2022-09-21T01:45:36;3.73;;;2.13;;
21494;SDS011;10909;53.590;10.054;2022-09-21T01:48:07;3.23;;;2.00;;
21494;SDS011;10909;53.590;10.054;2022-09-21T01:50:37;3.43;;;2.13;;
21494;SDS011;10909;53.590;10.054;2022-09-21T01:53:11;1.83;;;1.57;;
21494;SDS011;10909;53.590;10.054;2022-09-21T01:55:44;2.83;;;2.03;;
21494;SDS011;10909;53.590;10.054;2022-09-21T02:00:57;5.00;;;2.07;;
21494;SDS011;10909;53.590;10.054;2022-09-21T02:05:56;3.00;;;1.67;;
21494;SDS011;10909;53.590;10.054;2022-09-21T02:08:23;6.80;;;2.00;;
21494;SDS011;10909;53.590;10.054;2022-09-21T02:10:52;4.83;;;1.97;;
21494;SDS011;10909;53.590;10.054;2022-09-21T02:13:19;2.67;;;1.80;;
21494;SDS011;10909;53.590;10.054;2022-09-21T02:15:58;2.60;;;1.57;;
21494;SDS011;10909;53.590;10.054;2022-09-21T02:20:59;2.80;;;2.00;;
21494;SDS011;10909;53.590;10.054;2022-09-21T02:26:05;2.97;;;1.80;;
21494;SDS011;10909;53.590;10.054;2022-09-21T02:28:38;4.83;;;1.80;;
21494;SDS011;10909;53.590;10.054;2022-09-21T02:31:27;3.67;;;2.07;;
21494;SDS011;10909;53.590;10.054;2022-09-21T02:34:06;3.97;;;1.90;;
21494;SDS011;10909;53.590;10.054;2022-09-21T02:36:55;3.50;;;1.80;;
21494;SDS011;10909;53.590;10.054;2022-09-21T02:39:31;4.57;;;2.20;;
21494;SDS011;10909;53.590;10.054;2022-09-21T02:42:07;3.80;;;1.80;;
21494;SDS011;10909;53.590;10.054;2022-09-21T02:44:45;5.73;;;1.90;;
21494;SDS011;10909;53.590;10.054;2022-09-21T02:47:17;3.17;;;1.80;;
21494;SDS011;10909;53.590;10.054;2022-09-21T02:49:56;3.07;;;2.27;;
21494;SDS011;10909;53.590;10.054;2022-09-21T02:52:28;3.70;;;2.23;;
21494;SDS011;10909;53.590;10.054;2022-09-21T02:54:55;3.43;;;2.20;;
21494;SDS011;10909;53.590;10.054;2022-09-21T02:57:22;3.97;;;2.07;;
21494;SDS011;10909;53.590;10.054;2022-09-21T02:59:49;3.33;;;2.03;;
21494;SDS011;10909;53.590;10.054;2022-09-21T03:02:16;3.93;;;2.27;;
21494;SDS011;10909;53.590;10.054;2022-09-21T03:04:42;2.73;;;2.17;;
21494;SDS011;10909;53.590;10.054;2022-09-21T03:07:12;3.30;;;2.03;;
21494;SDS011;10909;53.590;10.054;2022-09-21T03:09:39;3.60;;;2.10;;
21494;SDS011;10909;53.590;10.054;2022-09-21T03:12:05;5.40;;;2.20;;
21494;SDS011;10909;53.590;10.054;2022-09-21T03:14:30;3.00;;;2.27;;
21494;SDS011;10909;53.590;10.054;2022-09-21T03:16:57;2.60;;;2.00;;
21494;SDS011;10909;53.590;10.054;2022-09-21T03:19:23;4.40;;;2.50;;
21494;SDS011;10909;53.590;10.054;2022-09-21T03:21:49;3.63;;;2.30;;
21494;SDS011;10909;53.590;10.054;2022-09-21T03:24:15;2.33;;;2.13;;
21494;SDS011;10909;53.590;10.054;2022-09-21T03:27:01;3.13;;;2.10;;
21494;SDS011;10909;53.590;10.054;2022-09-21T03:29:27;3.20;;;2.13;;
21494;SDS011;10909;53.590;10.054;2022-09-21T03:31:53;3.07;;;2.20;;
21494;SDS011;10909;53.590;10.054;2022-09-21T03:34:20;3.27;;;2.30;;
21494;SDS011;10909;53.590;10.054;2022-09-21T03:36:46;2.83;;;1.93;;
21494;SDS011;10909;53.590;10.054;2022-09-21T03:39:13;3.57;;;2.43;;
21494;SDS011;10909;53.590;10.054;2022-09-21T03:41:38;3.73;;;2.10;;
21494;SDS011;10909;53.590;10.054;2022-09-21T03:44:04;3.67;;;2.23;;
21494;SDS011;10909;53.590;10.054;2022-09-21T03:46:30;2.37;;;2.00;;
21494;SDS011;10909;53.590;10.054;2022-09-21T03:48:59;3.00;;;2.03;;
21494;SDS011;10909;53.590;10.054;2022-09-21T03:51:27;3.57;;;2.13;;
21494;SDS011;10909;53.590;10.054;2022-09-21T03:53:53;3.70;;;2.47;;
21494;SDS011;10909;53.590;10.054;2022-09-21T03:56:19;5.43;;;2.80;;
21494;SDS011;10909;53.590;10.054;2022-09-21T03:58:45;3.63;;;2.30;;
21494;SDS011;10909;53.590;10.054;2022-09-21T04:01:10;2.73;;;2.40;;
21494;SDS011;10909;53.590;10.054;2022-09-21T04:03:36;3.83;;;2.50;;
21494;SDS011;10909;53.590;10.054;2022-09-21T04:06:07;9.00;;;2.23;;
21494;SDS011;10909;53.590;10.054;2022-09-21T04:08:33;8.17;;;2.10;;
21494;SDS011;10909;53.590;10.054;2022-09-21T04:10:59;7.43;;;2.23;;
21494;SDS011;10909;53.590;10.054;2022-09-21T04:13:27;6.43;;;2.00;;
21494;SDS011;10909;53.590;10.054;2022-09-21T04:15:52;2.90;;;1.50;;
21494;SDS011;10909;53.590;10.054;2022-09-21T04:18:18;4.43;;;1.77;;
21494;SDS011;10909;53.590;10.054;2022-09-21T04:20:44;6.53;;;2.00;;
21494;SDS011;10909;53.590;10.054;2022-09-21T04:23:09;2.47;;;1.97;;
21494;SDS011;10909;53.590;10.054;2022-09-21T04:25:35;4.73;;;1.80;;
21494;SDS011;10909;53.590;10.054;2022-09-21T04:28:01;2.50;;;2.10;;
21494;SDS011;10909;53.590;10.054;2022-09-21T04:30:27;5.27;;;2.00;;
21494;SDS011;10909;53.590;10.054;2022-09-21T04:32:53;3.43;;;2.10;;
21494;SDS011;10909;53.590;10.054;2022-09-21T04:35:18;5.20;;;1.90;;
21494;SDS011;10909;53.590;10.054;2022-09-21T04:37:44;5.27;;;2.20;;
21494;SDS011;10909;53.590;10.054;2022-09-21T04:40:10;3.03;;;2.37;;
21494;SDS011;10909;53.590;10.054;2022-09-21T04:42:35;2.40;;;2.20;;
21494;SDS011;10909;53.590;10.054;2022-09-21T04:45:01;2.63;;;2.07;;
21494;SDS011;10909;53.590;10.054;2022-09-21T04:47:28;3.33;;;2.03;;
21494;SDS011;10909;53.590;10.054;2022-09-21T04:49:54;3.27;;;2.13;;
21494;SDS011;10909;53.590;10.054;2022-09-21T04:52:20;2.93;;;2.07;;
21494;SDS011;10909;53.590;10.054;2022-09-21T04:54:46;2.90;;;2.33;;
21494;SDS011;10909;53.590;10.054;2022-09-21T04:57:12;2.60;;;2.40;;
21494;SDS011;10909;53.590;10.054;2022-09-21T04:59:38;3.67;;;2.67;;
21494;SDS011;10909;53.590;10.054;2022-09-21T05:02:03;5.10;;;2.83;;
21494;SDS011;10909;53.590;10.054;2022-09-21T05:04:29;3.23;;;2.50;;
21494;SDS011;10909;53.590;10.054;2022-09-21T05:06:55;2.87;;;2.63;;
21494;SDS011;10909;53.590;10.054;2022-09-21T05:09:22;2.87;;;2.43;;
21494;SDS011;10909;53.590;10.054;2022-09-21T05:12:06;2.33;;;2.13;;
21494;SDS011;10909;53.590;10.054;2022-09-21T05:14:32;2.67;;;2.23;;
21494;SDS011;10909;53.590;10.054;2022-09-21T05:16:57;2.63;;;2.20;;
21494;SDS011;10909;53.590;10.054;2022-09-21T05:19:23;2.50;;;2.20;;
21494;SDS011;10909;53.590;10.054;2022-09-21T05:21:49;2.47;;;2.13;;
21494;SDS011;10909;53.590;10.054;2022-09-21T05:24:14;2.30;;;2.00;;
21494;SDS011;10909;53.590;10.054;2022-09-21T05:26:40;3.03;;;2.40;;
21494;SDS011;10909;53.590;10.054;2022-09-21T05:29:05;2.80;;;2.50;;
21494;SDS011;10909;53.590;10.054;2022-09-21T05:31:40;3.60;;;2.40;;
21494;SDS011;10909;53.590;10.054;2022-09-21T05:37:01;3.00;;;2.10;;
21494;SDS011;10909;53.590;10.054;2022-09-21T05:39:42;3.10;;;2.27;;
21494;SDS011;10909;53.590;10.054;2022-09-21T05:42:09;2.57;;;2.27;;
21494;SDS011;10909;53.590;10.054;2022-09-21T05:44:35;2.97;;;2.47;;
21494;SDS011;10909;53.590;10.054;2022-09-21T05:47:03;3.73;;;2.73;;
21494;SDS011;10909;53.590;10.054;2022-09-21T06:01:30;2.27;;;2.07;;
21494;SDS011;10909;53.590;10.054;2022-09-21T06:04:17;2.73;;;2.30;;
21494;SDS011;10909;53.590;10.054;2022-09-21T06:06:43;3.57;;;2.70;;
21494;SDS011;10909;53.590;10.054;2022-09-21T06:09:08;3.70;;;2.60;;
21494;SDS011;10909;53.590;10.054;2022-09-21T06:11:34;3.97;;;3.20;;
21494;SDS011;10909;53.590;10.054;2022-09-21T06:14:01;3.20;;;2.90;;
21494;SDS011;10909;53.590;10.054;2022-09-21T06:16:35;3.27;;;2.77;;
21494;SDS011;10909;53.590;10.054;2022-09-21T06:19:01;3.90;;;3.20;;
21494;SDS011;10909;53.590;10.054;2022-09-21T06:21:27;4.80;;;3.13;;
21494;SDS011;10909;53.590;10.054;2022-09-21T06:23:52;4.00;;;3.30;;
21494;SDS011;10909;53.590;10.054;2022-09-21T06:26:18;3.40;;;3.10;;
21494;SDS011;10909;53.590;10.054;2022-09-21T06:28:44;5.23;;;3.33;;
21494;SDS011;10909;53.590;10.054;2022-09-21T06:31:09;3.87;;;3.30;;
21494;SDS011;10909;53.590;10.054;2022-09-21T06:33:35;4.03;;;3.30;;
21494;SDS011;10909;53.590;10.054;2022-09-21T06:36:01;3.40;;;3.10;;
21494;SDS011;10909;53.590;10.054;2022-09-21T06:38:28;4.00;;;2.83;;
21494;SDS011;10909;53.590;10.054;2022-09-21T06:40:54;3.43;;;3.10;;
21494;SDS011;10909;53.590;10.054;2022-09-21T06:43:20;4.63;;;3.30;;
21494;SDS011;10909;53.590;10.054;2022-09-21T06:45:53;4.63;;;3.33;;
21494;SDS011;10909;53.590;10.054;2022-09-21T06:48:19;6.33;;;3.67;;
21494;SDS011;10909;53.590;10.054;2022-09-21T06:50:45;4.73;;;3.57;;
21494;SDS011;10909;53.590;10.054;2022-09-21T06:53:11;4.80;;;3.97;;
21494;SDS011;10909;53.590;10.054;2022-09-21T06:55:37;4.50;;;3.63;;
21494;SDS011;10909;53.590;10.054;2022-09-21T06:58:03;4.47;;;3.90;;
21494;SDS011;10909;53.590;10.054;2022-09-21T07:00:30;6.10;;;4.63;;
21494;SDS011;10909;53.590;10.054;2022-09-21T07:02:56;4.23;;;3.83;;
21494;SDS011;10909;53.590;10.054;2022-09-21T07:05:22;6.33;;;4.20;;
21494;SDS011;10909;53.590;10.054;2022-09-21T07:07:47;5.80;;;4.27;;
21494;SDS011;10909;53.590;10.054;2022-09-21T07:10:13;5.53;;;4.53;;
21494;SDS011;10909;53.590;10.054;2022-09-21T07:12:39;4.73;;;4.00;;
21494;SDS011;10909;53.590;10.054;2022-09-21T07:15:05;6.43;;;4.30;;
21494;SDS011;10909;53.590;10.054;2022-09-21T07:17:35;5.03;;;4.27;;
21494;SDS011;10909;53.590;10.054;2022-09-21T07:20:03;4.67;;;4.13;;
21494;SDS011;10909;53.590;10.054;2022-09-21T07:22:30;5.80;;;3.93;;
21494;SDS011;10909;53.590;10.054;2022-09-21T07:24:56;4.93;;;3.77;;
21494;SDS011;10909;53.590;10.054;2022-09-21T07:27:23;4.47;;;3.50;;
21494;SDS011;10909;53.590;10.054;2022-09-21T07:29:49;4.23;;;3.83;;
21494;SDS011;10909;53.590;10.054;2022-09-21T07:32:15;6.00;;;4.17;;
21494;SDS011;10909;53.590;10.054;2022-09-21T07:34:41;4.60;;;3.70;;
21494;SDS011;10909;53.590;10.054;2022-09-21T07:37:09;3.93;;;3.60;;
21494;SDS011;10909;53.590;10.054;2022-09-21T07:39:34;6.17;;;3.60;;
21494;SDS011;10909;53.590;10.054;2022-09-21T07:42:01;3.67;;;3.30;;
21494;SDS011;10909;53.590;10.054;2022-09-21T07:44:26;5.47;;;3.63;;
21494;SDS011;10909;53.590;10.054;2022-09-21T07:46:52;5.20;;;3.47;;
21494;SDS011;10909;53.590;10.054;2022-09-21T07:49:18;4.10;;;3.57;;
21494;SDS011;10909;53.590;10.054;2022-09-21T07:51:43;5.30;;;3.43;;
21494;SDS011;10909;53.590;10.054;2022-09-21T07:54:09;4.60;;;3.77;;
21494;SDS011;10909;53.590;10.054;2022-09-21T07:56:35;4.27;;;3.53;;
21494;SDS011;10909;53.590;10.054;2022-09-21T07:59:03;4.60;;;3.70;;
21494;SDS011;10909;53.590;10.054;2022-09-21T08:01:36;4.90;;;3.40;;
21494;SDS011;10909;53.590;10.054;2022-09-21T08:04:04;5.20;;;3.87;;
21494;SDS011;10909;53.590;10.054;2022-09-21T08:06:32;4.83;;;3.50;;
21494;SDS011;10909;53.590;10.054;2022-09-21T08:08:59;5.57;;;3.27;;
21494;SDS011;10909;53.590;10.054;2022-09-21T08:11:36;5.67;;;3.50;;
21494;SDS011;10909;53.590;10.054;2022-09-21T08:14:02;7.30;;;3.63;;
21494;SDS011;10909;53.590;10.054;2022-09-21T08:16:29;3.87;;;3.33;;
21494;SDS011;10909;53.590;10.054;2022-09-21T08:18:55;5.30;;;3.57;;
21494;SDS011;10909;53.590;10.054;2022-09-21T08:21:21;4.23;;;3.83;;
21494;SDS011;10909;53.590;10.054;2022-09-21T08:23:47;4.63;;;3.13;;
21494;SDS011;10909;53.590;10.054;2022-09-21T08:26:14;4.05;;;3.20;;
21494;SDS011;10909;53.590;10.054;2022-09-21T08:28:45;4.67;;;3.53;;
21494;SDS011;10909;53.590;10.054;2022-09-21T08:31:16;3.38;;;2.70;;
21494;SDS011;10909;53.590;10.054;2022-09-21T08:33:43;4.28;;;3.53;;
21494;SDS011;10909;53.590;10.054;2022-09-21T08:36:10;3.58;;;2.80;;
21494;SDS011;10909;53.590;10.054;2022-09-21T08:38:36;2.60;;;2.10;;
21494;SDS011;10909;53.590;10.054;2022-09-21T08:41:09;2.78;;;2.22;;
21494;SDS011;10909;53.590;10.054;2022-09-21T08:43:59;2.22;;;2.00;;
21494;SDS011;10909;53.590;10.054;2022-09-21T08:46:29;4.43;;;2.40;;
21494;SDS011;10909;53.590;10.054;2022-09-21T08:51:25;3.53;;;2.38;;
21494;SDS011;10909;53.590;10.054;2022-09-21T08:53:56;2.42;;;2.05;;
21494;SDS011;10909;53.590;10.054;2022-09-21T08:56:27;3.10;;;2.50;;
21494;SDS011;10909;53.590;10.054;2022-09-21T08:58:53;3.08;;;2.28;;
21494;SDS011;10909;53.590;10.054;2022-09-21T09:09:41;1.67;;;1.58;;
21494;SDS011;10909;53.590;10.054;2022-09-21T09:12:35;1.50;;;1.30;;
21494;SDS011;10909;53.590;10.054;2022-09-21T09:15:29;1.92;;;1.30;;
21494;SDS011;10909;53.590;10.054;2022-09-21T09:18:12;1.10;;;1.00;;
21494;SDS011;10909;53.590;10.054;2022-09-21T09:20:56;1.90;;;1.30;;
21494;SDS011;10909;53.590;10.054;2022-09-21T09:23:43;3.38;;;1.42;;
21494;SDS011;10909;53.590;10.054;2022-09-21T09:26:17;2.38;;;1.20;;
21494;SDS011;10909;53.590;10.054;2022-09-21T09:28:59;3.35;;;1.40;;
21494;SDS011;10909;53.590;10.054;2022-09-21T09:31:36;1.77;;;1.40;;
21494;SDS011;10909;53.590;10.054;2022-09-21T09:34:17;1.63;;;1.30;;
21494;SDS011;10909;53.590;10.054;2022-09-21T09:36:59;1.95;;;1.27;;
21494;SDS011;10909;53.590;10.054;2022-09-21T09:39:34;2.10;;;1.40;;
21494;SDS011;10909;53.590;10.054;2022-09-21T09:42:03;1.73;;;1.20;;
21494;SDS011;10909;53.590;10.054;2022-09-21T09:53:09;1.75;;;1.30;;
21494;SDS011;10909;53.590;10.054;2022-09-21T09:55:44;2.78;;;1.77;;
21494;SDS011;10909;53.590;10.054;2022-09-21T10:00:44;2.53;;;1.50;;
21494;SDS011;10909;53.590;10.054;2022-09-21T10:03:21;3.72;;;1.77;;
21494;SDS011;10909;53.590;10.054;2022-09-21T10:05:48;1.15;;;1.05;;
21494;SDS011;10909;53.590;10.054;2022-09-21T10:11:00;2.20;;;1.63;;
21494;SDS011;10909;53.590;10.054;2022-09-21T10:13:30;2.30;;;1.55;;
21494;SDS011;10909;53.590;10.054;2022-09-21T10:15:59;1.73;;;1.40;;
21494;SDS011;10909;53.590;10.054;2022-09-21T10:18:54;1.83;;;1.45;;
21494;SDS011;10909;53.590;10.054;2022-09-21T10:21:26;1.63;;;1.40;;
21494;SDS011;10909;53.590;10.054;2022-09-21T10:24:03;2.17;;;1.23;;
21494;SDS011;10909;53.590;10.054;2022-09-21T10:26:41;1.55;;;1.08;;
21494;SDS011;10909;53.590;10.054;2022-09-21T10:31:53;1.95;;;1.00;;
21494;SDS011;10909;53.590;10.054;2022-09-21T10:34:21;1.15;;;1.05;;
21494;SDS011;10909;53.590;10.054;2022-09-21T10:36:51;1.92;;;1.02;;
21494;SDS011;10909;53.590;10.054;2022-09-21T10:39:24;1.45;;;0.93;;
21494;SDS011;10909;53.590;10.054;2022-09-21T10:41:55;2.10;;;1.08;;
21494;SDS011;10909;53.590;10.054;2022-09-21T10:44:42;1.33;;;0.93;;
21494;SDS011;10909;53.590;10.054;2022-09-21T10:49:55;1.95;;;1.15;;
21494;SDS011;10909;53.590;10.054;2022-09-21T10:52:29;1.98;;;1.00;;
21494;SDS011;10909;53.590;10.054;2022-09-21T10:55:05;1.13;;;0.73;;
21494;SDS011;10909;53.590;10.054;2022-09-21T10:57:39;0.77;;;0.73;;
21494;SDS011;10909;53.590;10.054;2022-09-21T11:00:25;0.80;;;0.80;;
21494;SDS011;10909;53.590;10.054;2022-09-21T11:03:05;0.85;;;0.75;;
21494;SDS011;10909;53.590;10.054;2022-09-21T11:05:54;0.55;;;0.55;;
21494;SDS011;10909;53.590;10.054;2022-09-21T11:08:35;1.23;;;0.73;;
21494;SDS011;10909;53.590;10.054;2022-09-21T11:19:37;1.02;;;0.60;;
21494;SDS011;10909;53.590;10.054;2022-09-21T11:24:58;0.50;;;0.50;;
21494;SDS011;10909;53.590;10.054;2022-09-21T11:27:46;1.25;;;0.65;;
21494;SDS011;10909;53.590;10.054;2022-09-21T11:30:20;1.60;;;0.60;;
21494;SDS011;10909;53.590;10.054;2022-09-21T11:35:32;0.40;;;0.40;;
21494;SDS011;10909;53.590;10.054;2022-09-21T11:46:43;0.98;;;0.73;;
21494;SDS011;10909;53.590;10.054;2022-09-21T11:57:43;0.70;;;0.68;;
21494;SDS011;10909;53.590;10.054;2022-09-21T12:00:18;1.10;;;0.85;;
21494;SDS011;10909;53.590;10.054;2022-09-21T12:13:53;1.00;;;0.80;;
21494;SDS011;10909;53.590;10.054;2022-09-21T12:22:15;1.02;;;0.93;;
21494;SDS011;10909;53.590;10.054;2022-09-21T12:24:53;0.52;;;0.52;;
21494;SDS011;10909;53.590;10.054;2022-09-21T12:27:27;1.00;;;0.68;;
21494;SDS011;10909;53.590;10.054;2022-09-21T12:30:01;1.52;;;0.70;;
21494;SDS011;10909;53.590;10.054;2022-09-21T12:32:52;0.65;;;0.65;;
21494;SDS011;10909;53.590;10.054;2022-09-21T12:35:38;0.50;;;0.47;;
21494;SDS011;10909;53.590;10.054;2022-09-21T12:38:15;0.80;;;0.60;;
21494;SDS011;10909;53.590;10.054;2022-09-21T12:41:02;0.80;;;0.70;;
21494;SDS011;10909;53.590;10.054;2022-09-21T12:46:19;0.52;;;0.50;;
21494;SDS011;10909;53.590;10.054;2022-09-21T12:48:47;0.88;;;0.70;;
21494;SDS011;10909;53.590;10.054;2022-09-21T12:53:49;0.60;;;0.60;;
21494;SDS011;10909;53.590;10.054;2022-09-21T12:58:49;0.73;;;0.60;;
21494;SDS011;10909;53.590;10.054;2022-09-21T13:01:41;0.60;;;0.60;;
21494;SDS011;10909;53.590;10.054;2022-09-21T13:07:12;0.85;;;0.68;;
21494;SDS011;10909;53.590;10.054;2022-09-21T13:09:41;0.90;;;0.70;;
21494;SDS011;10909;53.590;10.054;2022-09-21T13:12:17;0.63;;;0.60;;
21494;SDS011;10909;53.590;10.054;2022-09-21T13:14:49;0.70;;;0.70;;
21494;SDS011;10909;53.590;10.054;2022-09-21T13:17:29;1.00;;;0.70;;
21494;SDS011;10909;53.590;10.054;2022-09-21T13:19:57;0.60;;;0.60;;
21494;SDS011;10909;53.590;10.054;2022-09-21T13:22:29;0.88;;;0.88;;
21494;SDS011;10909;53.590;10.054;2022-09-21T13:25:06;1.02;;;0.80;;
21494;SDS011;10909;53.590;10.054;2022-09-21T13:28:05;0.80;;;0.70;;
21494;SDS011;10909;53.590;10.054;2022-09-21T13:34:03;0.80;;;0.80;;
21494;SDS011;10909;53.590;10.054;2022-09-21T13:38:33;0.50;;;0.50;;
21494;SDS011;10909;53.590;10.054;2022-09-21T13:43:44;0.70;;;0.70;;
21494;SDS011;10909;53.590;10.054;2022-09-21T13:49:01;1.23;;;0.75;;
21494;SDS011;10909;53.590;10.054;2022-09-21T13:51:34;0.77;;;0.77;;
21494;SDS011;10909;53.590;10.054;2022-09-21T13:54:31;0.73;;;0.73;;
21494;SDS011;10909;53.590;10.054;2022-09-21T13:59:40;0.80;;;0.80;;
21494;SDS011;10909;53.590;10.054;2022-09-21T14:05:17;1.83;;;0.70;;
21494;SDS011;10909;53.590;10.054;2022-09-21T14:10:47;0.63;;;0.63;;
21494;SDS011;10909;53.590;10.054;2022-09-21T14:13:35;1.08;;;0.80;;
21494;SDS011;10909;53.590;10.054;2022-09-21T14:18:52;0.60;;;0.60;;
21494;SDS011;10909;53.590;10.054;2022-09-21T14:21:19;0.63;;;0.63;;
21494;SDS011;10909;53.590;10.054;2022-09-21T14:27:03;1.65;;;0.70;;
21494;SDS011;10909;53.590;10.054;2022-09-21T14:30:33;1.05;;;0.90;;
21494;SDS011;10909;53.590;10.054;2022-09-21T14:32:42;0.77;;;0.77;;
21494;SDS011;10909;53.590;10.054;2022-09-21T14:35:21;1.00;;;0.90;;
21494;SDS011;10909;53.590;10.054;2022-09-21T14:37:49;0.70;;;0.60;;
21494;SDS011;10909;53.590;10.054;2022-09-21T14:40:23;1.33;;;0.90;;
21494;SDS011;10909;53.590;10.054;2022-09-21T14:42:53;0.80;;;0.80;;
21494;SDS011;10909;53.590;10.054;2022-09-21T14:45:23;1.38;;;1.10;;
21494;SDS011;10909;53.590;10.054;2022-09-21T14:54:13;0.93;;;0.88;;
21494;SDS011;10909;53.590;10.054;2022-09-21T15:02:21;1.15;;;1.02;;
21494;SDS011;10909;53.590;10.054;2022-09-21T15:05:12;1.20;;;1.10;;
21494;SDS011;10909;53.590;10.054;2022-09-21T15:07:50;0.88;;;0.88;;
21494;SDS011;10909;53.590;10.054;2022-09-21T15:10:54;1.60;;;1.00;;
21494;SDS011;10909;53.590;10.054;2022-09-21T15:18:46;0.73;;;0.73;;
21494;SDS011;10909;53.590;10.054;2022-09-21T15:21:25;0.80;;;0.80;;
21494;SDS011;10909;53.590;10.054;2022-09-21T15:23:53;1.38;;;0.93;;
21494;SDS011;10909;53.590;10.054;2022-09-21T15:28:49;1.88;;;1.23;;
21494;SDS011;10909;53.590;10.054;2022-09-21T15:31:18;1.05;;;0.80;;
21494;SDS011;10909;53.590;10.054;2022-09-21T15:33:44;0.70;;;0.70;;
21494;SDS011;10909;53.590;10.054;2022-09-21T15:36:18;0.98;;;0.90;;
21494;SDS011;10909;53.590;10.054;2022-09-21T15:38:46;1.30;;;1.00;;
21494;SDS011;10909;53.590;10.054;2022-09-21T15:41:35;1.40;;;0.95;;
21494;SDS011;10909;53.590;10.054;2022-09-21T15:44:42;1.13;;;0.88;;
21494;SDS011;10909;53.590;10.054;2022-09-21T15:47:02;1.90;;;0.90;;
21494;SDS011;10909;53.590;10.054;2022-09-21T15:49:32;1.00;;;0.80;;
21494;SDS011;10909;53.590;10.054;2022-09-21T15:52:01;1.27;;;0.90;;
21494;SDS011;10909;53.590;10.054;2022-09-21T15:54:45;2.13;;;1.13;;
21494;SDS011;10909;53.590;10.054;2022-09-21T16:00:06;0.80;;;0.75;;
21494;SDS011;10909;53.590;10.054;2022-09-21T16:02:34;2.35;;;0.70;;
21494;SDS011;10909;53.590;10.054;2022-09-21T16:05:02;1.25;;;0.80;;
21494;SDS011;10909;53.590;10.054;2022-09-21T16:07:33;1.42;;;0.90;;
21494;SDS011;10909;53.590;10.054;2022-09-21T16:10:00;1.67;;;0.90;;
21494;SDS011;10909;53.590;10.054;2022-09-21T16:12:38;0.93;;;0.80;;
21494;SDS011;10909;53.590;10.054;2022-09-21T16:15:22;1.70;;;0.93;;
21494;SDS011;10909;53.590;10.054;2022-09-21T16:17:53;1.10;;;0.90;;
21494;SDS011;10909;53.590;10.054;2022-09-21T16:20:22;1.13;;;1.02;;
21494;SDS011;10909;53.590;10.054;2022-09-21T16:23:04;1.20;;;0.90;;
21494;SDS011;10909;53.590;10.054;2022-09-21T16:25:36;1.30;;;0.80;;
21494;SDS011;10909;53.590;10.054;2022-09-21T16:28:25;1.20;;;0.98;;
21494;SDS011;10909;53.590;10.054;2022-09-21T16:30:53;1.63;;;1.08;;
21494;SDS011;10909;53.590;10.054;2022-09-21T16:38:41;1.20;;;0.95;;
21494;SDS011;10909;53.590;10.054;2022-09-21T16:41:07;1.23;;;0.95;;
21494;SDS011;10909;53.590;10.054;2022-09-21T16:43:33;1.48;;;1.38;;
21494;SDS011;10909;53.590;10.054;2022-09-21T16:46:01;1.35;;;1.13;;
21494;SDS011;10909;53.590;10.054;2022-09-21T16:48:27;2.65;;;1.10;;
21494;SDS011;10909;53.590;10.054;2022-09-21T16:50:53;1.10;;;1.00;;
21494;SDS011;10909;53.590;10.054;2022-09-21T16:53:19;1.85;;;1.58;;
21494;SDS011;10909;53.590;10.054;2022-09-21T16:55:45;2.17;;;1.75;;
21494;SDS011;10909;53.590;10.054;2022-09-21T16:58:12;3.72;;;2.63;;
21494;SDS011;10909;53.590;10.054;2022-09-21T17:00:38;2.88;;;2.58;;
21494;SDS011;10909;53.590;10.054;2022-09-21T17:03:05;2.30;;;2.10;;
21494;SDS011;10909;53.590;10.054;2022-09-21T17:05:30;2.55;;;1.88;;
21494;SDS011;10909;53.590;10.054;2022-09-21T17:07:57;4.63;;;1.45;;
21494;SDS011;10909;53.590;10.054;2022-09-21T17:10:24;1.23;;;1.13;;
21494;SDS011;10909;53.590;10.054;2022-09-21T17:12:56;1.35;;;1.00;;
21494;SDS011;10909;53.590;10.054;2022-09-21T17:15:23;1.20;;;1.10;;
21494;SDS011;10909;53.590;10.054;2022-09-21T17:17:49;1.00;;;0.90;;
21494;SDS011;10909;53.590;10.054;2022-09-21T17:20:22;1.30;;;1.10;;
21494;SDS011;10909;53.590;10.054;2022-09-21T17:23:02;1.15;;;1.05;;
21494;SDS011;10909;53.590;10.054;2022-09-21T17:25:31;1.60;;;1.30;;
21494;SDS011;10909;53.590;10.054;2022-09-21T17:27:59;2.08;;;1.25;;
21494;SDS011;10909;53.590;10.054;2022-09-21T17:30:26;1.83;;;1.30;;
21494;SDS011;10909;53.590;10.054;2022-09-21T17:32:52;1.83;;;1.30;;
21494;SDS011;10909;53.590;10.054;2022-09-21T17:35:30;2.13;;;1.30;;
21494;SDS011;10909;53.590;10.054;2022-09-21T17:37:59;1.33;;;1.20;;
21494;SDS011;10909;53.590;10.054;2022-09-21T17:40:25;1.92;;;1.45;;
21494;SDS011;10909;53.590;10.054;2022-09-21T17:42:51;2.45;;;1.35;;
21494;SDS011;10909;53.590;10.054;2022-09-21T17:48:03;1.58;;;1.30;;
21494;SDS011;10909;53.590;10.054;2022-09-21T17:50:29;4.05;;;1.70;;
21494;SDS011;10909;53.590;10.054;2022-09-21T17:52:55;1.95;;;1.40;;
21494;SDS011;10909;53.590;10.054;2022-09-21T17:55:49;1.85;;;1.65;;
21494;SDS011;10909;53.590;10.054;2022-09-21T17:58:24;2.95;;;1.80;;